Accueil
METAR-TAF:

METAR-TAF

Aéroports :

Bastia, France

Aéroport de Bastia Poretta

latitude: 42-33N, longitude: 009-29E, altitude: 8 m

Observation

Le bulletin a été fait il y a 30 minutes, à 22:30 UTC
Vent 5 kt de nord-ouest
Température 23°C
Humidité 57%
Pression 1017 hPa
Visibilité 10 km ou plus
pas de nuages en-dessous de 1500 mètres et pas de cumulonimbus.

METAR: LFKB 202230Z AUTO 31005KT CAVOK 23/14 Q1017 NOSIG

Heure: 01:00 (23:00 UTC)

Prévision

Le bulletin a été fait il y a 3 heures et 0 minutes, à 20:00 UTC
Prévision valable du 20 à 21 UTC au 21 à 21 UTC
Vent 4 kt de ouest/sud-ouest
Visibilité 10 km ou plus
pas de nuages en-dessous de 1500 mètres et pas de cumulonimbus.
Evoluant progressivement
du 21 à 08 UTC au 21 à 10 UTC
Vent 10 kt de nord-est
Quelques nuages à une hauteur de 3000 ft

TAF: LFKB 202000Z 2021/2121 24004KT CAVOK BECMG 2108/2110 04010KT FEW030 TX30/2112Z TN19/2104Z

Observations et prévisions météorologiques de plus de 4000 aéroports (messages METAR et TAF).

Les stations disponibles sont représentées par des disques jaunes et rouges sur la carte.

Passer la souris dessus pour voir le nom de la station.

Cliquer dessus pour voir les observations et prévisions météorologiques.

Pour changer de carte: cliquez sur les boutons verts avec une croix noire pour zoomer, sur le bouton vert avec un tiret pour effectuer un zoom arrière, ou sur les flèches vertes pour les cartes adjacentes.


METAR-TAF: